| time (UTC) | temp C | wind direction | speed KPH | gust KPH | rain 1hr cm | rain 24hr cm | rain mn cm | humidity % | barometer mb |
| 20260507001608 | 18 | 240 | 4.8 | 11.3 | 0.00 | 0.00 | 0.00 | 64 | 1015.2 |
| 20260507000711 | 18 | 134 | 3.2 | 12.9 | 0.00 | 0.00 | 0.00 | 63 | 1015.0 |
| 20260506235714 | 19 | 259 | 1.6 | 11.3 | 0.00 | 0.00 | 0.00 | 62 | 1015.1 |
| 20260506234735 | 18 | 207 | 4.8 | 16.1 | 0.00 | 0.00 | 0.00 | 62 | 1015.1 |
| 20260506234627 | 18 | 219 | 6.4 | 12.9 | 0.00 | 0.00 | 0.00 | 62 | 1015.1 |
| 20260506233733 | 18 | 214 | 6.4 | 16.1 | 0.00 | 0.00 | 0.00 | 63 | 1015.0 |
| 20260506233003 | 18 | 221 | 6.4 | 16.1 | 0.00 | 0.00 | 0.00 | 63 | 1015.1 |
| 20260506232750 | 19 | 257 | 4.8 | 16.1 | 0.00 | 0.00 | 0.00 | 63 | 1015.2 |
| 20260506231735 | 20 | 195 | 4.8 | 16.1 | 0.00 | 0.00 | 0.00 | 61 | 1015.1 |
| 20260506231602 | 19 | 200 | 8.0 | 17.7 | 0.00 | 0.00 | 0.00 | 61 | 1015.2 |
| 20260506230754 | 20 | 200 | 4.8 | 12.9 | 0.00 | 0.00 | 0.00 | 61 | 1015.1 |
| 20260506225744 | 20 | 238 | 6.4 | 19.3 | 0.00 | 0.00 | 0.00 | 60 | 1015.2 |
| 20260506224805 | 20 | 223 | 6.4 | 19.3 | 0.00 | 0.00 | 0.00 | 60 | 1015.3 |
| 20260506224504 | 20 | 195 | 9.7 | 20.9 | 0.00 | 0.00 | 0.00 | 59 | 1015.4 |
| 20260506223804 | 20 | 238 | 6.4 | 14.5 | 0.00 | 0.00 | 0.00 | 58 | 1015.4 |
| 20260506223103 | 20 | 207 | 6.4 | 14.5 | 0.00 | 0.00 | 0.00 | 57 | 1015.5 |
| 20260506222825 | 21 | 239 | 4.8 | 12.9 | 0.00 | 0.00 | 0.00 | 58 | 1015.5 |
| 20260506221843 | 20 | 157 | 6.4 | 17.7 | 0.00 | 0.00 | 0.00 | 59 | 1015.7 |
| 20260506221504 | 20 | 221 | 8.0 | 17.7 | 0.00 | 0.00 | 0.00 | 58 | 1015.8 |
| 20260506220813 | 20 | 231 | 8.0 | 17.7 | 0.00 | 0.00 | 0.00 | 59 | 1015.7 |
| 20260506220003 | 20 | 176 | 6.4 | 16.1 | 0.00 | 0.00 | 0.00 | 57 | 1016.0 |
| 20260506215818 | 21 | 214 | 6.4 | 12.9 | 0.00 | 0.00 | 0.00 | 57 | 1015.9 |
| 20260506214805 | 21 | 186 | 6.4 | 16.1 | 0.00 | 0.00 | 0.00 | 60 | 1016.0 |
| 20260506214603 | 20 | 291 | 8.0 | 17.7 | 0.00 | 0.00 | 0.00 | 58 | 1016.1 |
| 20260506213759 | 21 | 169 | 6.4 | 16.1 | 0.00 | 0.00 | 0.00 | 59 | 1016.0 |
| 20260506213002 | 21 | 244 | 6.4 | 14.5 | 0.00 | 0.00 | 0.00 | 58 | 1016.2 |
| 20260506212823 | 21 | 188 | 4.8 | 16.1 | 0.00 | 0.00 | 0.00 | 58 | 1016.2 |
| 20260506211824 | 21 | 167 | 4.8 | 16.1 | 0.00 | 0.00 | 0.00 | 58 | 1016.2 |
| 20260506211605 | 20 | 207 | 6.4 | 17.7 | 0.00 | 0.00 | 0.00 | 60 | 1016.3 |
| 20260506210831 | 21 | 234 | 6.4 | 16.1 | 0.00 | 0.00 | 0.00 | 59 | 1016.4 |
| 20260506205844 | 21 | 195 | 4.8 | 16.1 | 0.00 | 0.00 | 0.00 | 58 | 1016.4 |
| 20260506204831 | 21 | 239 | 3.2 | 11.3 | 0.00 | 0.00 | 0.00 | 57 | 1016.5 |
| 20260506204503 | 21 | 229 | 3.2 | 11.3 | 0.00 | 0.00 | 0.00 | 58 | 1016.6 |
| 20260506203845 | 21 | 284 | 3.2 | 14.5 | 0.00 | 0.00 | 0.00 | 59 | 1016.5 |
| 20260506203103 | 20 | 271 | 4.8 | 16.1 | 0.00 | 0.00 | 0.00 | 60 | 1016.7 |
| 20260506202842 | 20 | 184 | 6.4 | 17.7 | 0.00 | 0.00 | 0.00 | 60 | 1016.6 |
| 20260506201807 | 20 | 261 | 6.4 | 17.7 | 0.00 | 0.00 | 0.00 | 62 | 1016.8 |
| 20260506201502 | 20 | 211 | 9.7 | 19.3 | 0.00 | 0.00 | 0.00 | 60 | 1016.9 |
| 20260506200758 | 21 | 232 | 4.8 | 16.1 | 0.00 | 0.00 | 0.00 | 61 | 1016.8 |
| 20260506200004 | 20 | 233 | 8.0 | 17.7 | 0.00 | 0.00 | 0.00 | 60 | 1017.0 |
| 20260506195728 | 20 | 203 | 4.8 | 12.9 | 0.00 | 0.00 | 0.00 | 61 | 1016.8 |
| 20260506194729 | 20 | 214 | 6.4 | 19.3 | 0.00 | 0.00 | 0.00 | 62 | 1017.0 |
| 20260506194624 | 20 | 193 | 6.4 | 17.7 | 0.00 | 0.00 | 0.00 | 61 | 1017.1 |
| 20260506193736 | 20 | 176 | 6.4 | 19.3 | 0.00 | 0.00 | 0.00 | 62 | 1017.1 |
| 20260506193003 | 21 | 217 | 9.7 | 16.1 | 0.00 | 0.00 | 0.00 | 60 | 1017.3 |
| 20260506192741 | 21 | 228 | 3.2 | 9.7 | 0.00 | 0.00 | 0.00 | 57 | 1017.2 |
| 20260506191713 | 21 | 172 | 1.6 | 11.3 | 0.00 | 0.00 | 0.00 | 58 | 1017.3 |
| 20260506191606 | 20 | 179 | 3.2 | 9.7 | 0.00 | 0.00 | 0.00 | 58 | 1017.3 |
| 20260506185555 | 20 | 207 | 3.2 | 11.3 | 0.00 | 0.00 | 0.00 | 61 | 1017.5 |
| 20260506184537 | 20 | 200 | 3.2 | 11.3 | 0.00 | 0.00 | 0.00 | 61 | 1017.6 |
| 20260506184502 | 20 | 176 | 1.6 | 11.3 | 0.00 | 0.00 | 0.00 | 61 | 1017.6 |
| 20260506183544 | 20 | 195 | 3.2 | 11.3 | 0.00 | 0.00 | 0.00 | 60 | 1017.6 |
| 20260506183107 | 19 | 268 | 4.8 | 9.7 | 0.00 | 0.00 | 0.00 | 61 | 1017.6 |
| 20260506181502 | 19 | 141 | 3.2 | 9.7 | 0.00 | 0.00 | 0.00 | 63 | 1017.8 |
| 20260506181440 | 19 | 186 | 1.6 | 8.0 | 0.00 | 0.00 | 0.00 | 65 | 1017.7 |
| 20260506180424 | 18 | 188 | 1.6 | 9.7 | 0.00 | 0.00 | 0.00 | 63 | 1017.9 |
| 20260506180008 | 18 | 148 | 3.2 | 11.3 | 0.00 | 0.00 | 0.00 | 64 | 1017.9 |
| 20260506174604 | 17 | 214 | 3.2 | 11.3 | 0.00 | 0.00 | 0.00 | 66 | 1017.9 |
| 20260506174324 | 18 | 213 | 1.6 | 8.0 | 0.00 | 0.00 | 0.00 | 66 | 1017.8 |
| 20260506173002 | 17 | 276 | 0.0 | 6.4 | 0.00 | 0.00 | 0.00 | 69 | 1017.9 |
| 20260506172119 | 17 | 210 | 1.6 | 6.4 | 0.00 | 0.00 | 0.00 | 68 | 1017.9 |
| 20260506171602 | 17 | 219 | 1.6 | 8.0 | 0.00 | 0.00 | 0.00 | 71 | 1017.9 |
| 20260506171053 | 17 | 181 | 1.6 | 8.0 | 0.00 | 0.00 | 0.00 | 71 | 1017.8 |
| 20260506170103 | 16 | 269 | 3.2 | 9.7 | 0.00 | 0.00 | 0.00 | 73 | 1017.9 |
| 20260506170043 | 16 | 262 | 1.6 | 8.0 | 0.00 | 0.00 | 0.00 | 73 | 1017.9 |
| 20260506165042 | 16 | 217 | 0.0 | 6.4 | 0.00 | 0.00 | 0.00 | 73 | 1017.8 |
| 20260506164502 | 16 | 241 | 1.6 | 6.4 | 0.00 | 0.00 | 0.00 | 73 | 1017.9 |
| 20260506163106 | 15 | 215 | 4.8 | 9.7 | 0.00 | 0.00 | 0.00 | 75 | 1017.8 |
| 20260506162925 | 15 | 233 | 3.2 | 9.7 | 0.00 | 0.00 | 0.00 | 76 | 1017.8 |
| 20260506161504 | 15 | 207 | 4.8 | 11.3 | 0.00 | 0.00 | 0.00 | 77 | 1017.9 |
| 20260506160823 | 15 | 216 | 1.6 | 8.0 | 0.00 | 0.00 | 0.00 | 78 | 1017.8 |
| 20260506160003 | 15 | 153 | 3.2 | 8.0 | 0.00 | 0.00 | 0.00 | 80 | 1018.0 |
| 20260506155758 | 15 | 238 | 0.0 | 6.4 | 0.00 | 0.00 | 0.00 | 79 | 1017.9 |
| 20260506154755 | 15 | 207 | 0.0 | 1.6 | 0.00 | 0.00 | 0.00 | 80 | 1018.0 |
| 20260506154602 | 15 | 175 | 0.0 | 3.2 | 0.00 | 0.00 | 0.00 | 80 | 1018.0 |
| 20260506153722 | 14 | 156 | 0.0 | 3.2 | 0.00 | 0.00 | 0.00 | 83 | 1018.0 |
| 20260506153002 | 13 | 197 | 1.6 | 6.4 | 0.00 | 0.00 | 0.00 | 83 | 1017.9 |
| 20260506152659 | 14 | 150 | 1.6 | 4.8 | 0.00 | 0.00 | 0.00 | 84 | 1017.9 |
| 20260506151639 | 13 | 179 | 0.0 | 3.2 | 0.00 | 0.00 | 0.00 | 87 | 1017.9 |
| 20260506151611 | 13 | 179 | 0.0 | 4.8 | 0.00 | 0.00 | 0.00 | 87 | 1018.0 |
| 20260506150623 | 13 | 199 | 0.0 | 3.2 | 0.00 | 0.00 | 0.00 | 88 | 1017.9 |
| 20260506150108 | 12 | 157 | 1.6 | 3.2 | 0.00 | 0.00 | 0.00 | 89 | 1018.0 |
| 20260506144502 | 12 | 141 | 0.0 | 1.6 | 0.00 | 0.00 | 0.00 | 90 | 1018.1 |
| 20260506144454 | 12 | 141 | 0.0 | 0.0 | 0.00 | 0.00 | 0.00 | 90 | 1018.0 |
| 20260506143444 | 12 | 45 | 0.0 | 0.0 | 0.00 | 0.00 | 0.00 | 91 | 1018.0 |
| 20260506143106 | 12 | 45 | 0.0 | 1.6 | 0.00 | 0.00 | 0.00 | 92 | 1018.0 |
| 20260506141602 | 11 | 353 | 0.0 | 1.6 | 0.00 | 0.00 | 0.00 | 93 | 1018.0 |
| 20260506141340 | 11 | 351 | 0.0 | 0.0 | 0.00 | 0.00 | 0.00 | 93 | 1017.9 |
| 20260506140311 | 10 | 351 | 0.0 | 0.0 | 0.00 | 0.00 | 0.00 | 93 | 1017.7 |
| 20260506140113 | 10 | 351 | 0.0 | 1.6 | 0.00 | 0.00 | 0.00 | 93 | 1017.8 |
| 20260506135319 | 10 | 351 | 0.0 | 0.0 | 0.00 | 0.00 | 0.00 | 93 | 1017.7 |
| 20260506134503 | 10 | 351 | 0.0 | 1.6 | 0.00 | 0.00 | 0.00 | 93 | 1017.6 |
| 20260506134310 | 10 | 351 | 0.0 | 0.0 | 0.00 | 0.00 | 0.00 | 93 | 1017.6 |
| 20260506133306 | 10 | 351 | 0.0 | 0.0 | 0.00 | 0.00 | 0.00 | 92 | 1017.4 |
| 20260506133103 | 10 | 351 | 0.0 | 1.6 | 0.00 | 0.00 | 0.00 | 92 | 1017.5 |
| 20260506132242 | 10 | 350 | 0.0 | 0.0 | 0.00 | 0.00 | 0.00 | 93 | 1017.5 |
| 20260506131602 | 9 | 352 | 0.0 | 1.6 | 0.00 | 0.00 | 0.00 | 92 | 1017.5 |
| 20260506131303 | 10 | 352 | 0.0 | 0.0 | 0.00 | 0.00 | 0.00 | 91 | 1017.4 |
| 20260506130254 | 10 | 349 | 0.0 | 0.0 | 0.00 | 0.00 | 0.00 | 93 | 1017.3 |
| 20260506130143 | 10 | 349 | 0.0 | 1.6 | 0.00 | 0.00 | 0.00 | 93 | 1017.4 |
| 20260506125247 | 10 | 351 | 0.0 | 0.0 | 0.00 | 0.00 | 0.00 | 92 | 1017.1 |
| 20260506124502 | 9 | 350 | 0.0 | 1.6 | 0.00 | 0.00 | 0.00 | 92 | 1017.2 |
| 20260506124241 | 10 | 350 | 0.0 | 0.0 | 0.00 | 0.00 | 0.00 | 92 | 1017.1 |
| 20260506123213 | 10 | 351 | 0.0 | 0.0 | 0.00 | 0.00 | 0.00 | 91 | 1017.0 |
| 20260506123103 | 9 | 351 | 0.0 | 1.6 | 0.00 | 0.00 | 0.00 | 91 | 1017.0 |
| 20260506122225 | 10 | 351 | 0.0 | 0.0 | 0.00 | 0.00 | 0.00 | 91 | 1017.0 |
| 20260506121505 | 10 | 350 | 0.0 | 0.0 | 0.00 | 0.00 | 0.00 | 91 | 1016.9 |
| 20260506121151 | 10 | 351 | 0.0 | 0.0 | 0.00 | 0.00 | 0.00 | 90 | 1016.9 |
| 20260506120148 | 10 | 350 | 0.0 | 0.0 | 0.00 | 0.00 | 0.00 | 90 | 1016.8 |
| 20260506120002 | 10 | 350 | 0.0 | 1.6 | 0.00 | 0.00 | 0.00 | 91 | 1016.9 |
| 20260506114602 | 10 | 351 | 0.0 | 1.6 | 0.00 | 0.00 | 0.00 | 90 | 1016.8 |
| 20260506114027 | 10 | 351 | 0.0 | 0.0 | 0.00 | 0.00 | 0.00 | 89 | 1016.7 |
| 20260506113012 | 10 | 351 | 0.0 | 0.0 | 0.00 | 0.00 | 0.00 | 89 | 1016.7 |
| 20260506113002 | 10 | 351 | 0.0 | 1.6 | 0.00 | 0.00 | 0.00 | 89 | 1016.8 |
| 20260506111941 | 10 | 351 | 0.0 | 0.0 | 0.00 | 0.00 | 0.00 | 88 | 1016.7 |
| 20260506111602 | 10 | 351 | 0.0 | 1.6 | 0.00 | 0.00 | 0.00 | 86 | 1016.7 |
| 20260506110105 | 10 | 351 | 0.0 | 1.6 | 0.00 | 0.00 | 0.00 | 87 | 1016.7 |
| 20260506105800 | 10 | 351 | 0.0 | 0.0 | 0.00 | 0.00 | 0.00 | 86 | 1016.6 |
| 20260506104749 | 11 | 351 | 0.0 | 0.0 | 0.00 | 0.00 | 0.00 | 86 | 1016.7 |
| 20260506104502 | 10 | 351 | 0.0 | 1.6 | 0.00 | 0.00 | 0.00 | 86 | 1016.8 |
| 20260506103742 | 11 | 351 | 0.0 | 0.0 | 0.00 | 0.00 | 0.00 | 86 | 1016.7 |
| 20260506103103 | 10 | 351 | 0.0 | 1.6 | 0.00 | 0.00 | 0.00 | 87 | 1016.8 |
| 20260506102719 | 10 | 9 | 0.0 | 0.0 | 0.00 | 0.00 | 0.00 | 87 | 1016.7 |
| 20260506101728 | 11 | 10 | 0.0 | 0.0 | 0.00 | 0.00 | 0.00 | 86 | 1016.7 |
| 20260506101503 | 10 | 9 | 0.0 | 1.6 | 0.00 | 0.00 | 0.00 | 86 | 1016.7 |
| 20260506100104 | 10 | 10 | 0.0 | 1.6 | 0.00 | 0.00 | 0.00 | 86 | 1016.7 |
| 20260506095551 | 11 | 10 | 0.0 | 0.0 | 0.00 | 0.00 | 0.00 | 86 | 1016.7 |
| 20260506094523 | 11 | 10 | 0.0 | 0.0 | 0.00 | 0.00 | 0.00 | 86 | 1016.8 |
| 20260506094507 | 11 | 10 | 0.0 | 1.6 | 0.00 | 0.00 | 0.00 | 86 | 1016.9 |
| 20260506093106 | 11 | 33 | 0.0 | 1.6 | 0.00 | 0.00 | 0.00 | 83 | 1016.8 |
| 20260506092339 | 11 | 33 | 0.0 | 4.8 | 0.00 | 0.00 | 0.00 | 82 | 1016.7 |
| 20260506091502 | 11 | 38 | 0.0 | 6.4 | 0.00 | 0.00 | 0.00 | 81 | 1016.8 |
| 20260506091400 | 12 | 37 | 0.0 | 4.8 | 0.00 | 0.00 | 0.00 | 81 | 1016.7 |
| 20260506090359 | 11 | 44 | 0.0 | 3.2 | 0.00 | 0.00 | 0.00 | 84 | 1016.9 |
| 20260506090001 | 11 | 23 | 1.6 | 4.8 | 0.00 | 0.00 | 0.00 | 85 | 1017.0 |
| 20260506085417 | 11 | 34 | 0.0 | 0.0 | 0.00 | 0.00 | 0.00 | 86 | 1016.9 |
| 20260506084610 | 11 | 349 | 0.0 | 1.6 | 0.00 | 0.00 | 0.00 | 86 | 1017.1 |
| 20260506083003 | 11 | 23 | 0.0 | 0.0 | 0.00 | 0.00 | 0.00 | 87 | 1017.1 |
| 20260506081959 | 11 | 23 | 0.0 | 0.0 | 0.00 | 0.00 | 0.00 | 86 | 1017.0 |
| 20260506081603 | 11 | 23 | 0.0 | 0.0 | 0.00 | 0.00 | 0.00 | 86 | 1017.2 |
| 20260506081014 | 11 | 23 | 0.0 | 0.0 | 0.00 | 0.00 | 0.00 | 86 | 1017.2 |
| 20260506080107 | 11 | 24 | 0.0 | 1.6 | 0.00 | 0.00 | 0.00 | 86 | 1017.2 |
| 20260506073106 | 11 | 38 | 0.0 | 1.6 | 0.00 | 0.00 | 0.00 | 85 | 1017.2 |
| 20260506072900 | 11 | 38 | 0.0 | 0.0 | 0.00 | 0.00 | 0.00 | 85 | 1017.1 |
| 20260506071849 | 11 | 38 | 0.0 | 0.0 | 0.00 | 0.00 | 0.00 | 84 | 1017.0 |
| 20260506071502 | 11 | 38 | 0.0 | 3.2 | 0.00 | 0.00 | 0.00 | 85 | 1017.0 |
| 20260506070822 | 11 | 37 | 0.0 | 1.6 | 0.00 | 0.00 | 0.00 | 85 | 1016.9 |
| 20260506061633 | 11 | 11 | 0.0 | 0.0 | 0.00 | 0.00 | 0.00 | 87 | 1016.5 |
| 20260506061603 | 11 | 11 | 0.0 | 1.6 | 0.00 | 0.00 | 0.00 | 87 | 1016.6 |
| 20260506060603 | 11 | 11 | 0.0 | 0.0 | 0.00 | 0.00 | 0.00 | 88 | 1016.5 |
| 20260506050450 | 11 | 11 | 0.0 | 0.0 | 0.00 | 0.00 | 0.00 | 85 | 1016.0 |
| 20260506050103 | 11 | 11 | 0.0 | 3.2 | 0.00 | 0.00 | 0.00 | 86 | 1016.1 |
| 20260506044502 | 11 | 266 | 0.0 | 0.0 | 0.00 | 0.00 | 0.00 | 83 | 1015.8 |
| 20260506044422 | 11 | 266 | 0.0 | 0.0 | 0.00 | 0.00 | 0.00 | 83 | 1015.8 |
| 20260506043438 | 11 | 266 | 0.0 | 0.0 | 0.00 | 0.00 | 0.00 | 83 | 1015.7 |
| 20260506043102 | 11 | 266 | 0.0 | 0.0 | 0.00 | 0.00 | 0.00 | 82 | 1015.6 |
| 20260506042443 | 11 | 266 | 0.0 | 0.0 | 0.00 | 0.00 | 0.00 | 83 | 1015.5 |
| 20260506041502 | 11 | 266 | 0.0 | 0.0 | 0.00 | 0.00 | 0.00 | 82 | 1015.4 |
| 20260506041422 | 11 | 266 | 0.0 | 0.0 | 0.00 | 0.00 | 0.00 | 82 | 1015.4 |
| 20260506040439 | 11 | 266 | 0.0 | 0.0 | 0.00 | 0.00 | 0.00 | 82 | 1015.3 |
| 20260506040003 | 11 | 266 | 0.0 | 0.0 | 0.00 | 0.00 | 0.00 | 81 | 1015.3 |
| 20260506035457 | 12 | 266 | 0.0 | 0.0 | 0.00 | 0.00 | 0.00 | 80 | 1015.2 |
| 20260506034604 | 12 | 266 | 0.0 | 1.6 | 0.00 | 0.00 | 0.00 | 80 | 1015.1 |
| 20260506034450 | 12 | 266 | 0.0 | 0.0 | 0.00 | 0.00 | 0.00 | 79 | 1015.0 |
| 20260506033002 | 12 | 266 | 0.0 | 1.6 | 0.00 | 0.00 | 0.00 | 77 | 1014.9 |
| 20260506032340 | 13 | 261 | 0.0 | 0.0 | 0.00 | 0.00 | 0.00 | 77 | 1014.8 |
| 20260506031607 | 13 | 261 | 0.0 | 3.2 | 0.00 | 0.00 | 0.00 | 76 | 1014.7 |
| 20260506031400 | 13 | 261 | 0.0 | 0.0 | 0.00 | 0.00 | 0.00 | 76 | 1014.6 |
| 20260506030348 | 13 | 176 | 0.0 | 1.6 | 0.00 | 0.00 | 0.00 | 75 | 1014.4 |
| 20260506030104 | 13 | 236 | 0.0 | 3.2 | 0.00 | 0.00 | 0.00 | 74 | 1014.5 |
| 20260506025334 | 14 | 199 | 0.0 | 1.6 | 0.00 | 0.00 | 0.00 | 73 | 1014.3 |
| 20260506024502 | 13 | 236 | 0.0 | 4.8 | 0.00 | 0.00 | 0.00 | 74 | 1014.2 |
| 20260506024341 | 14 | 211 | 0.0 | 3.2 | 0.00 | 0.00 | 0.00 | 74 | 1014.2 |
| 20260506023102 | 13 | 194 | 1.6 | 6.4 | 0.00 | 0.00 | 0.00 | 73 | 1014.2 |
| 20260506021039 | 14 | 222 | 0.0 | 0.0 | 0.00 | 0.00 | 0.00 | 72 | 1013.8 |
| 20260506020015 | 14 | 222 | 0.0 | 0.0 | 0.00 | 0.00 | 0.00 | 72 | 1013.8 |
| 20260506020002 | 14 | 221 | 0.0 | 4.8 | 0.00 | 0.00 | 0.00 | 72 | 1013.8 |
| 20260506015016 | 15 | 245 | 0.0 | 1.6 | 0.00 | 0.00 | 0.00 | 71 | 1013.8 |
| 20260506014604 | 14 | 248 | 0.0 | 6.4 | 0.00 | 0.00 | 0.00 | 70 | 1013.8 |
| 20260506013950 | 15 | 245 | 0.0 | 6.4 | 0.00 | 0.00 | 0.00 | 70 | 1013.8 |
| 20260506013003 | 14 | 198 | 0.0 | 6.4 | 0.00 | 0.00 | 0.00 | 70 | 1013.7 |
| 20260506012923 | 15 | 190 | 0.0 | 4.8 | 0.00 | 0.00 | 0.00 | 71 | 1013.6 |
| 20260506011909 | 15 | 231 | 0.0 | 6.4 | 0.00 | 0.00 | 0.00 | 70 | 1013.7 |
| 20260506011604 | 15 | 214 | 0.0 | 6.4 | 0.00 | 0.00 | 0.00 | 71 | 1013.7 |
| 20260506010928 | 15 | 224 | 1.6 | 6.4 | 0.00 | 0.00 | 0.00 | 70 | 1013.7 |
| 20260506010106 | 15 | 200 | 4.8 | 8.0 | 0.00 | 0.00 | 0.00 | 69 | 1013.7 |
| 20260506005925 | 15 | 251 | 0.0 | 4.8 | 0.00 | 0.00 | 0.00 | 69 | 1013.7 |
| 20260506004916 | 15 | 238 | 1.6 | 8.0 | 0.00 | 0.00 | 0.00 | 69 | 1013.6 |
| 20260506004504 | 15 | 240 | 1.6 | 6.4 | 0.00 | 0.00 | 0.00 | 69 | 1013.7 |
| 20260506003911 | 15 | 233 | 1.6 | 8.0 | 0.00 | 0.00 | 0.00 | 69 | 1013.6 |
| 20260506003103 | 15 | 195 | 0.0 | 8.0 | 0.00 | 0.00 | 0.00 | 69 | 1013.6 |
| 20260506001739 | 15 | 236 | 0.0 | 9.7 | 0.00 | 0.00 | 0.00 | 69 | 1013.5 |